LEMG METAR and TAF | Updated Today

LEMG METAR

Málaga Airport

Observation time: 13 min. ago

LEMG 010800Z 29006KT CAVOK 16/08 Q1024 NOSIG

Need help? Read our tutorial on how to read METARs or read the parsed version below.

Málaga Airport (LEMG) METAR

  • Weather conditions on Sat, 01 Oct 2022 08:00:00 +0000 (13 min. ago):
  • Present conditions: Dry
  • Clouds: Clear skies
  • Visibility: Greater than 10 km
  • Wind: 290 degrees at 6 knots
  • Temperature: 16 celsius
  • Dew point: 8 celsius
  • Pressure: 1024 millibars
  • Remarks: None


Useful to know...

LEMG TAF

Málaga Airport

TAF LEMG 010500Z 0106/0206 29008KT CAVOK TX25/0112Z TN13/0106Z BECMG 0109/0111 12009KT BECMG 0120/0122 VRB02KT
Observation time: 3:13 hr. ago
Need help? Read our tutorial on how to read TAFs or read the parsed version below.

Parsed version of TAF for Málaga Airport (LEMG)

  • From 01 October at 06:00 UTC, to day 02 of the month at 06:00 UTC
  • Visibility: Greater than 10 km
  • Wind: 290 degrees at 8
  • Expected to arise soon, from 01 October at 09:00 UTC, to day 01 of the month at 11:00 UTC
  • Wind: 120 degrees at 9
  • Expected to arise soon, from 01 October at 20:00 UTC, to day 01 of the month at 22:00 UTC
  • Wind: Variable at 2

Airports near LEMG

No airports found within 100nm radius.